Terminal Aerodrome Forecast
Issued by NWS

Home | Current Version | Previous Version | Text Only | Print | Product List | Glossary On
Versions: 1 2 3 4 5 6 7 8 9 10 11 12 13 14 15
000
FTUS42 KTAE 201120
TAFECP
TAF
KECP 201120Z 2012/2112 VRB03KT P6SM SCT015 BKN250
     FM201800 23009KT 6SM TSRA BKN040CB
     FM202200 VRB05KT P6SM SCT040 BKN250=

USA.gov is the U.S. government's official web portal to all federal, state and local government web resources and services.